PWSweather.com
Personal Weather Stations
Station Observations
COONRAPIDS
Minneapolis, MN 55433

Minneapolis, MN 55433

Lat: 45.187721, Lon: -93.36828

Elevation: 898

Station Type: Davis Vantage Pro 2

Latest ConditionsUpdated 8:10:01 PM CDT Monday, Mar 25, 2019
Currently Today's Max Today's Min Today's Average
Temperature 36.2°F2.3°C 46.5°F8.1°C 21.7°F-5.7°C 33.7°F0.9°C
Dew Point 16.4°F-8.7°C 19.2°F-7.1°C 11.3°F-11.5°C 15.1°F-9.4°C
Winds Calm Calm 2.3 mph -3.7 kmh - - 0.3 mph 0.5 kmh
Wind Gusts -- 6.9 mph11.1 kmh - -
Humidity 44% 73% 28% 48%
Pressure 30.38 in1028.8 mb 30.42 in1030.1 mb 30.32 in1026.8 mb -
Hour Temp Dew Point Humidity Winds Wind Gusts Pressure Precip Precip Rate Daily Precip Total
08:10 PM 36.2°F2.3°C 16.4°F-8.7°C 44% Calm Calm -- 30.38 in1028.8 mb - 0.00 in0.0 mm 0.00 in0.0 mm
08:00 PM 36.9°F2.7°C 16.5°F-8.6°C 43% Calm Calm -- 30.38 in1028.8 mb - 0.00 in0.0 mm 0.00 in0.0 mm
07:50 PM 37.6°F3.1°C 16.0°F-8.9°C 41% Calm Calm -- 30.38 in1028.8 mb - 0.00 in0.0 mm 0.00 in0.0 mm
07:40 PM 38.3°F3.5°C 16.0°F-8.9°C 40% Calm Calm -- 30.38 in1028.8 mb - 0.00 in0.0 mm 0.00 in0.0 mm
07:30 PM 39.1°F3.9°C 16.2°F-8.8°C 39% Calm Calm -- 30.38 in1028.8 mb - 0.00 in0.0 mm 0.00 in0.0 mm
07:20 PM 39.8°F4.3°C 16.3°F-8.7°C 38% Calm Calm -- 30.37 in1028.4 mb - 0.00 in0.0 mm 0.00 in0.0 mm
07:10 PM 40.6°F4.8°C 15.7°F-9.1°C 36% Calm Calm -- 30.37 in1028.4 mb - 0.00 in0.0 mm 0.00 in0.0 mm
07:00 PM 41.2°F5.1°C 15.5°F-9.2°C 35% Calm Calm -- 30.37 in1028.4 mb - 0.00 in0.0 mm 0.00 in0.0 mm
06:50 PM 41.9°F5.5°C 15.5°F-9.2°C 34% Calm Calm 1.2 mph1.9 kmh 30.37 in1028.4 mb - 0.00 in0.0 mm 0.00 in0.0 mm
06:40 PM 42.9°F6.1°C 15.0°F-9.4°C 32% 2.3 mph NW3.7 kmh NW 3.5 mph5.6 kmh 30.37 in1028.4 mb - 0.00 in0.0 mm 0.00 in0.0 mm
06:30 PM 44.5°F6.9°C 14.2°F-9.9°C 29% 2.3 mph NW3.7 kmh NW 3.5 mph5.6 kmh 30.37 in1028.4 mb - 0.00 in0.0 mm 0.00 in0.0 mm
06:20 PM 45.7°F7.6°C 15.2°F-9.3°C 29% Calm Calm -- 30.37 in1028.4 mb - 0.00 in0.0 mm 0.00 in0.0 mm
06:10 PM 45.7°F7.6°C 16.0°F-8.9°C 30% Calm Calm -- 30.36 in1028.1 mb - 0.00 in0.0 mm 0.00 in0.0 mm
06:00 PM 45.8°F7.7°C 16.1°F-8.8°C 30% Calm Calm 1.2 mph1.9 kmh 30.36 in1028.1 mb - 0.00 in0.0 mm 0.00 in0.0 mm
05:50 PM 45.8°F7.7°C 14.5°F-9.7°C 28% 1.2 mph NNE1.9 kmh NNE 3.5 mph5.6 kmh 30.36 in1028.1 mb - 0.00 in0.0 mm 0.00 in0.0 mm
05:40 PM 46.2°F7.9°C 16.4°F-8.7°C 30% Calm Calm -- 30.36 in1028.1 mb - 0.00 in0.0 mm 0.00 in0.0 mm
05:30 PM 46.3°F7.9°C 15.7°F-9.1°C 29% 1.2 mph W1.9 kmh W 2.3 mph3.7 kmh 30.36 in1028.1 mb - 0.00 in0.0 mm 0.00 in0.0 mm
05:20 PM 46.3°F7.9°C 15.7°F-9.1°C 29% Calm Calm 2.3 mph3.7 kmh 30.36 in1028.1 mb - 0.00 in0.0 mm 0.00 in0.0 mm
05:10 PM 46.0°F7.8°C 16.3°F-8.7°C 30% 1.2 mph NW1.9 kmh NW -- 30.36 in1028.1 mb - 0.00 in0.0 mm 0.00 in0.0 mm
05:00 PM 46.5°F8.1°C 16.7°F-8.5°C 30% Calm Calm 2.3 mph3.7 kmh 30.36 in1028.1 mb - 0.00 in0.0 mm 0.00 in0.0 mm
04:50 PM 46.4°F8.0°C 16.6°F-8.6°C 30% Calm Calm -- 30.36 in1028.1 mb - 0.00 in0.0 mm 0.00 in0.0 mm
04:40 PM 46.2°F7.9°C 17.9°F-7.8°C 32% Calm Calm 3.5 mph5.6 kmh 30.36 in1028.1 mb - 0.00 in0.0 mm 0.00 in0.0 mm
04:30 PM 45.9°F7.7°C 17.7°F-7.9°C 32% 1.2 mph NE1.9 kmh NE 2.3 mph3.7 kmh 30.37 in1028.4 mb - 0.00 in0.0 mm 0.00 in0.0 mm
04:20 PM 45.2°F7.3°C 17.1°F-8.3°C 32% Calm Calm 2.3 mph3.7 kmh 30.37 in1028.4 mb - 0.00 in0.0 mm 0.00 in0.0 mm
04:10 PM 45.4°F7.4°C 17.9°F-7.8°C 33% Calm Calm -- 30.37 in1028.4 mb - 0.00 in0.0 mm 0.00 in0.0 mm
04:00 PM 45.2°F7.3°C 18.5°F-7.5°C 34% 1.2 mph NE1.9 kmh NE 3.5 mph5.6 kmh 30.37 in1028.4 mb - 0.00 in0.0 mm 0.00 in0.0 mm
03:50 PM 44.6°F7.0°C 19.2°F-7.1°C 36% Calm Calm -- 30.37 in1028.4 mb - 0.00 in0.0 mm 0.00 in0.0 mm
03:40 PM 43.7°F6.5°C 17.1°F-8.3°C 34% 1.2 mph W1.9 kmh W -- 30.38 in1028.8 mb - 0.00 in0.0 mm 0.00 in0.0 mm
03:30 PM 43.4°F6.3°C 17.5°F-8.1°C 35% Calm Calm -- 30.38 in1028.8 mb - 0.00 in0.0 mm 0.00 in0.0 mm
03:20 PM 43.4°F6.3°C 18.2°F-7.7°C 36% Calm Calm -- 30.38 in1028.8 mb - 0.00 in0.0 mm 0.00 in0.0 mm
03:10 PM 42.8°F6.0°C 18.9°F-7.3°C 38% Calm Calm -- 30.38 in1028.8 mb - 0.00 in0.0 mm 0.00 in0.0 mm
03:00 PM 42.3°F5.7°C 17.8°F-7.9°C 37% Calm Calm -- 30.38 in1028.8 mb - 0.00 in0.0 mm 0.00 in0.0 mm
02:50 PM 42.5°F5.8°C 18.1°F-7.7°C 37% Calm Calm -- 30.39 in1029.1 mb - 0.00 in0.0 mm 0.00 in0.0 mm
02:40 PM 42.9°F6.1°C 19.0°F-7.2°C 38% Calm Calm 3.5 mph5.6 kmh 30.39 in1029.1 mb - 0.00 in0.0 mm 0.00 in0.0 mm
02:30 PM 42.2°F5.7°C 18.9°F-7.3°C 39% Calm Calm -- 30.39 in1029.1 mb - 0.00 in0.0 mm 0.00 in0.0 mm
02:20 PM 41.8°F5.4°C 18.0°F-7.8°C 38% Calm Calm -- 30.39 in1029.1 mb - 0.00 in0.0 mm 0.00 in0.0 mm
02:10 PM 42.4°F5.8°C 18.5°F-7.5°C 38% 2.3 mph NNW3.7 kmh NNW 3.5 mph5.6 kmh 30.40 in1029.5 mb - 0.00 in0.0 mm 0.00 in0.0 mm
02:00 PM 41.7°F5.4°C 18.0°F-7.8°C 38% Calm Calm 1.2 mph1.9 kmh 30.40 in1029.5 mb - 0.00 in0.0 mm 0.00 in0.0 mm
01:50 PM 41.1°F5.1°C 18.0°F-7.8°C 39% Calm Calm -- 30.40 in1029.5 mb - 0.00 in0.0 mm 0.00 in0.0 mm
01:40 PM 40.8°F4.9°C 17.8°F-7.9°C 39% Calm Calm 1.2 mph1.9 kmh 30.41 in1029.8 mb - 0.00 in0.0 mm 0.00 in0.0 mm
01:30 PM 40.4°F4.7°C 16.7°F-8.5°C 38% 1.2 mph S1.9 kmh S 3.5 mph5.6 kmh 30.41 in1029.8 mb - 0.00 in0.0 mm 0.00 in0.0 mm
01:20 PM 40.6°F4.8°C 18.1°F-7.7°C 40% 1.2 mph NNE1.9 kmh NNE 1.2 mph1.9 kmh 30.41 in1029.8 mb - 0.00 in0.0 mm 0.00 in0.0 mm
01:10 PM 40.7°F4.8°C 17.0°F-8.3°C 38% 1.2 mph NE1.9 kmh NE 1.2 mph1.9 kmh 30.41 in1029.8 mb - 0.00 in0.0 mm 0.00 in0.0 mm
01:00 PM 40.8°F4.9°C 15.9°F-8.9°C 36% Calm Calm 2.3 mph3.7 kmh 30.41 in1029.8 mb - 0.00 in0.0 mm 0.00 in0.0 mm
12:50 PM 40.3°F4.6°C 17.9°F-7.8°C 40% Calm Calm -- 30.41 in1029.8 mb - 0.00 in0.0 mm 0.00 in0.0 mm
12:40 PM 39.9°F4.4°C 17.5°F-8.1°C 40% Calm Calm 3.5 mph5.6 kmh 30.41 in1029.8 mb - 0.00 in0.0 mm 0.00 in0.0 mm
12:30 PM 40.4°F4.7°C 15.5°F-9.2°C 36% Calm Calm -- 30.42 in1030.1 mb - 0.00 in0.0 mm 0.00 in0.0 mm
12:20 PM 39.5°F4.2°C 15.9°F-8.9°C 38% Calm Calm -- 30.42 in1030.1 mb - 0.00 in0.0 mm 0.00 in0.0 mm
12:10 PM 38.7°F3.7°C 14.0°F-10.0°C 36% Calm Calm -- 30.42 in1030.1 mb - 0.00 in0.0 mm 0.00 in0.0 mm
12:00 PM 38.9°F3.8°C 14.8°F-9.6°C 37% Calm Calm -- 30.42 in1030.1 mb - 0.00 in0.0 mm 0.00 in0.0 mm
11:50 AM 38.8°F3.8°C 17.1°F-8.3°C 41% Calm Calm -- 30.42 in1030.1 mb - 0.00 in0.0 mm 0.00 in0.0 mm
11:40 AM 37.6°F3.1°C 13.6°F-10.2°C 37% Calm Calm -- 30.42 in1030.1 mb - 0.00 in0.0 mm 0.00 in0.0 mm
11:30 AM 37.5°F3.1°C 15.3°F-9.3°C 40% 1.2 mph NE1.9 kmh NE 3.5 mph5.6 kmh 30.42 in1030.1 mb - 0.00 in0.0 mm 0.00 in0.0 mm
11:20 AM 36.9°F2.7°C 14.3°F-9.8°C 39% Calm Calm -- 30.42 in1030.1 mb - 0.00 in0.0 mm 0.00 in0.0 mm
11:10 AM 36.4°F2.4°C 14.3°F-9.8°C 40% Calm Calm 3.5 mph5.6 kmh 30.42 in1030.1 mb - 0.00 in0.0 mm 0.00 in0.0 mm
11:00 AM 35.4°F1.9°C 14.5°F-9.7°C 42% Calm Calm -- 30.42 in1030.1 mb - 0.00 in0.0 mm 0.00 in0.0 mm
10:50 AM 34.3°F1.3°C 13.6°F-10.2°C 42% Calm Calm 1.2 mph1.9 kmh 30.42 in1030.1 mb - 0.00 in0.0 mm 0.00 in0.0 mm
10:40 AM 33.4°F0.8°C 13.3°F-10.4°C 43% Calm Calm -- 30.42 in1030.1 mb - 0.00 in0.0 mm 0.00 in0.0 mm
10:30 AM 32.8°F0.4°C 14.3°F-9.8°C 46% Calm Calm -- 30.42 in1030.1 mb - 0.00 in0.0 mm 0.00 in0.0 mm
10:20 AM 32.3°F0.2°C 13.3°F-10.4°C 45% Calm Calm -- 30.42 in1030.1 mb - 0.00 in0.0 mm 0.00 in0.0 mm
10:10 AM 31.9°F-0.1°C 12.4°F-10.9°C 44% 2.3 mph ENE3.7 kmh ENE 6.9 mph11.1 kmh 30.42 in1030.1 mb - 0.00 in0.0 mm 0.00 in0.0 mm
10:00 AM 31.9°F-0.1°C 13.0°F-10.6°C 45% Calm Calm 1.2 mph1.9 kmh 30.41 in1029.8 mb - 0.00 in0.0 mm 0.00 in0.0 mm
09:50 AM 31.3°F-0.4°C 12.9°F-10.6°C 46% 1.2 mph N1.9 kmh N 3.5 mph5.6 kmh 30.42 in1030.1 mb - 0.00 in0.0 mm 0.00 in0.0 mm
09:40 AM 30.5°F-0.8°C 13.1°F-10.5°C 48% Calm Calm -- 30.41 in1029.8 mb - 0.00 in0.0 mm 0.00 in0.0 mm
09:30 AM 29.6°F-1.3°C 13.6°F-10.2°C 51% Calm Calm 3.5 mph5.6 kmh 30.41 in1029.8 mb - 0.00 in0.0 mm 0.00 in0.0 mm
09:20 AM 28.8°F-1.8°C 13.4°F-10.3°C 52% 1.2 mph NE1.9 kmh NE 2.3 mph3.7 kmh 30.41 in1029.8 mb - 0.00 in0.0 mm 0.00 in0.0 mm
09:10 AM 27.8°F-2.3°C 14.5°F-9.7°C 57% Calm Calm -- 30.41 in1029.8 mb - 0.00 in0.0 mm 0.00 in0.0 mm
09:00 AM 26.9°F-2.8°C 14.5°F-9.7°C 59% 1.2 mph ENE1.9 kmh ENE 2.3 mph3.7 kmh 30.41 in1029.8 mb - 0.00 in0.0 mm 0.00 in0.0 mm
08:50 AM 26.3°F-3.2°C 15.0°F-9.4°C 62% Calm Calm 3.5 mph5.6 kmh 30.41 in1029.8 mb - 0.00 in0.0 mm 0.00 in0.0 mm
08:40 AM 26.0°F-3.3°C 15.4°F-9.2°C 64% Calm Calm 2.3 mph3.7 kmh 30.41 in1029.8 mb - 0.00 in0.0 mm 0.00 in0.0 mm
08:30 AM 24.6°F-4.1°C 15.5°F-9.2°C 68% 1.2 mph NE1.9 kmh NE -- 30.41 in1029.8 mb - 0.00 in0.0 mm 0.00 in0.0 mm
08:20 AM 23.3°F-4.8°C 15.3°F-9.3°C 71% Calm Calm -- 30.41 in1029.8 mb - 0.00 in0.0 mm 0.00 in0.0 mm
08:10 AM 22.6°F-5.2°C 14.6°F-9.7°C 71% Calm Calm 2.3 mph3.7 kmh 30.40 in1029.5 mb - 0.00 in0.0 mm 0.00 in0.0 mm
08:00 AM 22.2°F-5.4°C 14.5°F-9.7°C 72% Calm Calm 3.5 mph5.6 kmh 30.40 in1029.5 mb - 0.00 in0.0 mm 0.00 in0.0 mm
07:50 AM 21.9°F-5.6°C 14.6°F-9.7°C 73% Calm Calm -- 30.40 in1029.5 mb - 0.00 in0.0 mm 0.00 in0.0 mm
07:40 AM 21.7°F-5.7°C 14.4°F-9.8°C 73% Calm Calm -- 30.40 in1029.5 mb - 0.00 in0.0 mm 0.00 in0.0 mm
07:30 AM 21.7°F-5.7°C 14.4°F-9.8°C 73% Calm Calm -- 30.40 in1029.5 mb - 0.00 in0.0 mm 0.00 in0.0 mm
07:20 AM 21.9°F-5.6°C 14.3°F-9.8°C 72% Calm Calm -- 30.39 in1029.1 mb - 0.00 in0.0 mm 0.00 in0.0 mm
07:10 AM 22.1°F-5.5°C 14.4°F-9.8°C 72% Calm Calm 2.3 mph3.7 kmh 30.39 in1029.1 mb - 0.00 in0.0 mm 0.00 in0.0 mm
07:00 AM 22.3°F-5.4°C 14.3°F-9.8°C 71% Calm Calm -- 30.39 in1029.1 mb - 0.00 in0.0 mm 0.00 in0.0 mm
06:50 AM 22.5°F-5.3°C 14.5°F-9.7°C 71% Calm Calm -- 30.38 in1028.8 mb - 0.00 in0.0 mm 0.00 in0.0 mm
06:40 AM 22.8°F-5.1°C 14.5°F-9.7°C 70% Calm Calm -- 30.38 in1028.8 mb - 0.00 in0.0 mm 0.00 in0.0 mm
06:30 AM 23.0°F-5.0°C 14.7°F-9.6°C 70% Calm Calm -- 30.38 in1028.8 mb - 0.00 in0.0 mm 0.00 in0.0 mm
06:20 AM 23.2°F-4.9°C 14.9°F-9.5°C 70% Calm Calm -- 30.38 in1028.8 mb - 0.00 in0.0 mm 0.00 in0.0 mm
06:10 AM 23.4°F-4.8°C 14.7°F-9.6°C 69% Calm Calm -- 30.38 in1028.8 mb - 0.00 in0.0 mm 0.00 in0.0 mm
06:00 AM 23.7°F-4.6°C 15.0°F-9.4°C 69% Calm Calm -- 30.38 in1028.8 mb - 0.00 in0.0 mm 0.00 in0.0 mm
05:50 AM 23.9°F-4.5°C 14.9°F-9.5°C 68% Calm Calm 2.3 mph3.7 kmh 30.38 in1028.8 mb - 0.00 in0.0 mm 0.00 in0.0 mm
05:40 AM 24.1°F-4.4°C 15.1°F-9.4°C 68% Calm Calm -- 30.37 in1028.4 mb - 0.00 in0.0 mm 0.00 in0.0 mm
05:30 AM 24.4°F-4.2°C 15.0°F-9.4°C 67% Calm Calm 1.2 mph1.9 kmh 30.37 in1028.4 mb - 0.00 in0.0 mm 0.00 in0.0 mm
05:20 AM 24.7°F-4.1°C 14.9°F-9.5°C 66% 2.3 mph NE3.7 kmh NE 3.5 mph5.6 kmh 30.37 in1028.4 mb - 0.00 in0.0 mm 0.00 in0.0 mm
05:10 AM 24.9°F-3.9°C 15.1°F-9.4°C 66% Calm Calm -- 30.36 in1028.1 mb - 0.00 in0.0 mm 0.00 in0.0 mm
05:00 AM 25.0°F-3.9°C 15.2°F-9.3°C 66% Calm Calm -- 30.36 in1028.1 mb - 0.00 in0.0 mm 0.00 in0.0 mm
04:50 AM 25.1°F-3.8°C 15.0°F-9.4°C 65% 1.2 mph NE1.9 kmh NE 3.5 mph5.6 kmh 30.36 in1028.1 mb - 0.00 in0.0 mm 0.00 in0.0 mm
04:40 AM 25.2°F-3.8°C 15.1°F-9.4°C 65% Calm Calm 2.3 mph3.7 kmh 30.36 in1028.1 mb - 0.00 in0.0 mm 0.00 in0.0 mm
04:30 AM 25.4°F-3.7°C 14.9°F-9.5°C 64% Calm Calm 1.2 mph1.9 kmh 30.36 in1028.1 mb - 0.00 in0.0 mm 0.00 in0.0 mm
04:20 AM 25.8°F-3.4°C 14.9°F-9.5°C 63% Calm Calm 1.2 mph1.9 kmh 30.36 in1028.1 mb - 0.00 in0.0 mm 0.00 in0.0 mm
04:10 AM 26.2°F-3.2°C 14.9°F-9.5°C 62% Calm Calm 2.3 mph3.7 kmh 30.35 in1027.8 mb - 0.00 in0.0 mm 0.00 in0.0 mm
04:00 AM 26.5°F-3.1°C 15.2°F-9.3°C 62% Calm Calm -- 30.35 in1027.8 mb - 0.00 in0.0 mm 0.00 in0.0 mm
03:50 AM 26.8°F-2.9°C 15.1°F-9.4°C 61% 1.2 mph NE1.9 kmh NE 3.5 mph5.6 kmh 30.36 in1028.1 mb - 0.00 in0.0 mm 0.00 in0.0 mm
03:40 AM 27.0°F-2.8°C 15.3°F-9.3°C 61% Calm Calm 3.5 mph5.6 kmh 30.35 in1027.8 mb - 0.00 in0.0 mm 0.00 in0.0 mm
03:30 AM 27.0°F-2.8°C 14.9°F-9.5°C 60% Calm Calm 1.2 mph1.9 kmh 30.36 in1028.1 mb - 0.00 in0.0 mm 0.00 in0.0 mm
03:20 AM 27.1°F-2.7°C 14.7°F-9.6°C 59% Calm Calm -- 30.35 in1027.8 mb - 0.00 in0.0 mm 0.00 in0.0 mm
03:10 AM 27.2°F-2.7°C 14.4°F-9.8°C 58% Calm Calm -- 30.35 in1027.8 mb - 0.00 in0.0 mm 0.00 in0.0 mm
03:00 AM 27.4°F-2.6°C 14.1°F-9.9°C 57% Calm Calm -- 30.36 in1028.1 mb - 0.00 in0.0 mm 0.00 in0.0 mm
02:50 AM 27.7°F-2.4°C 13.6°F-10.2°C 55% Calm Calm -- 30.35 in1027.8 mb - 0.00 in0.0 mm 0.00 in0.0 mm
02:40 AM 27.8°F-2.3°C 12.9°F-10.6°C 53% 1.2 mph NE1.9 kmh NE 1.2 mph1.9 kmh 30.35 in1027.8 mb - 0.00 in0.0 mm 0.00 in0.0 mm
02:30 AM 27.9°F-2.3°C 13.4°F-10.3°C 54% Calm Calm 1.2 mph1.9 kmh 30.35 in1027.8 mb - 0.00 in0.0 mm 0.00 in0.0 mm
02:20 AM 27.9°F-2.3°C 12.5°F-10.8°C 52% 1.2 mph NE1.9 kmh NE 1.2 mph1.9 kmh 30.35 in1027.8 mb - 0.00 in0.0 mm 0.00 in0.0 mm
02:10 AM 28.0°F-2.2°C 12.2°F-11.0°C 51% Calm Calm 1.2 mph1.9 kmh 30.35 in1027.8 mb - 0.00 in0.0 mm 0.00 in0.0 mm
02:00 AM 28.0°F-2.2°C 11.7°F-11.3°C 50% Calm Calm 1.2 mph1.9 kmh 30.35 in1027.8 mb - 0.00 in0.0 mm 0.00 in0.0 mm
01:50 AM 28.0°F-2.2°C 11.7°F-11.3°C 50% Calm Calm -- 30.35 in1027.8 mb - 0.00 in0.0 mm 0.00 in0.0 mm
01:40 AM 28.1°F-2.2°C 11.4°F-11.4°C 49% Calm Calm 2.3 mph3.7 kmh 30.34 in1027.4 mb - 0.00 in0.0 mm 0.00 in0.0 mm
01:30 AM 28.3°F-2.1°C 11.6°F-11.3°C 49% 1.2 mph NE1.9 kmh NE 5.8 mph9.3 kmh 30.34 in1027.4 mb - 0.00 in0.0 mm 0.00 in0.0 mm
01:20 AM 28.4°F-2.0°C 11.6°F-11.3°C 49% 1.2 mph NNE1.9 kmh NNE 3.5 mph5.6 kmh 30.34 in1027.4 mb - 0.00 in0.0 mm 0.00 in0.0 mm
01:10 AM 28.5°F-1.9°C 11.3°F-11.5°C 48% Calm Calm -- 30.34 in1027.4 mb - 0.00 in0.0 mm 0.00 in0.0 mm
01:00 AM 28.5°F-1.9°C 11.3°F-11.5°C 48% 1.2 mph NE1.9 kmh NE 1.2 mph1.9 kmh 30.34 in1027.4 mb - 0.00 in0.0 mm 0.00 in0.0 mm
12:50 AM 28.6°F-1.9°C 12.3°F-10.9°C 50% Calm Calm -- 30.34 in1027.4 mb - 0.00 in0.0 mm 0.00 in0.0 mm
12:40 AM 28.8°F-1.8°C 12.5°F-10.8°C 50% Calm Calm 1.2 mph1.9 kmh 30.34 in1027.4 mb - 0.00 in0.0 mm 0.00 in0.0 mm
12:30 AM 29.1°F-1.6°C 13.2°F-10.4°C 51% Calm Calm -- 30.33 in1027.1 mb - 0.00 in0.0 mm 0.00 in0.0 mm
12:20 AM 29.4°F-1.4°C 13.0°F-10.6°C 50% Calm Calm -- 30.33 in1027.1 mb - 0.00 in0.0 mm 0.00 in0.0 mm
12:10 AM 29.2°F-1.6°C 12.4°F-10.9°C 49% 2.3 mph NE3.7 kmh NE 4.6 mph7.4 kmh 30.33 in1027.1 mb - 0.00 in0.0 mm 0.00 in0.0 mm
12:00 AM 29.0°F-1.7°C 14.4°F-9.8°C 54% 2.3 mph ENE3.7 kmh ENE 3.5 mph5.6 kmh 30.32 in1026.8 mb - 0.00 in0.0 mm 0.00 in0.0 mm